Qeshm International Airport

Airport
ICAO code: 
OIKQ
IATA Code: 
GSM
Summary
ICAO Region: 
MID
Territory: 
Location: 
Direstan, Hormuzgan Province
Serving: 
Qeshm Island
Elevation: 
45 ft
Coordinates: 
Aerial View: 
26° 45' 21.975" N, 55° 53' 43.494" E
Metar
Observation
OIKQ 262000Z 12004KT CAVOK 31/29 Q0994
Station
Gheshm Island / Dayrestan
Date/Time
2022-06-26 20:00:00
Wind direction
120°
Wind speed
04 kts
Lowest cloud amount
clouds and visibility OK
Temperature
31°C
Dew point
29°C
Humidity
89%
QNH
994 hPa
Weather condition
n/a

Also known as Dayrestan Airport, this airport serves the island of Qeshm in the straights of Hormuz, off the south coast of Iran.

Climatology

Warm Desert climate (Köppen climate classification BWh).

Runways

Designator Length Width Surface Rops
5/23 4226 45 ASP No/No
Airport map: 
Aerial View: 

SKYbrary Partners:

Safety knowledge contributed by: